sensor_id;sensor_type;location;lat;lon;timestamp;P1;durP1;ratioP1;P2;durP2;ratioP2
75993;SDS011;64680;53.800;9.988;2023-02-11T00:00:47;44.55;;;19.45;;
75993;SDS011;64680;53.800;9.988;2023-02-11T00:03:12;48.47;;;20.70;;
75993;SDS011;64680;53.800;9.988;2023-02-11T00:05:38;45.70;;;19.73;;
75993;SDS011;64680;53.800;9.988;2023-02-11T00:08:03;50.50;;;21.02;;
75993;SDS011;64680;53.800;9.988;2023-02-11T00:10:29;52.97;;;22.05;;
75993;SDS011;64680;53.800;9.988;2023-02-11T00:12:55;49.35;;;21.40;;
75993;SDS011;64680;53.800;9.988;2023-02-11T00:15:20;46.05;;;19.70;;
75993;SDS011;64680;53.800;9.988;2023-02-11T00:17:46;46.75;;;18.50;;
75993;SDS011;64680;53.800;9.988;2023-02-11T00:20:12;40.67;;;18.60;;
75993;SDS011;64680;53.800;9.988;2023-02-11T00:22:37;48.65;;;19.33;;
75993;SDS011;64680;53.800;9.988;2023-02-11T00:25:03;54.65;;;23.55;;
75993;SDS011;64680;53.800;9.988;2023-02-11T00:27:29;46.15;;;20.42;;
75993;SDS011;64680;53.800;9.988;2023-02-11T00:29:54;56.80;;;21.95;;
75993;SDS011;64680;53.800;9.988;2023-02-11T00:32:20;45.97;;;19.77;;
75993;SDS011;64680;53.800;9.988;2023-02-11T00:34:46;41.88;;;18.13;;
75993;SDS011;64680;53.800;9.988;2023-02-11T00:37:11;44.95;;;18.17;;
75993;SDS011;64680;53.800;9.988;2023-02-11T00:39:37;57.45;;;20.52;;
75993;SDS011;64680;53.800;9.988;2023-02-11T00:42:03;52.38;;;18.35;;
75993;SDS011;64680;53.800;9.988;2023-02-11T00:44:29;44.97;;;18.80;;
75993;SDS011;64680;53.800;9.988;2023-02-11T00:46:54;50.50;;;19.35;;
75993;SDS011;64680;53.800;9.988;2023-02-11T00:49:20;48.40;;;17.30;;
75993;SDS011;64680;53.800;9.988;2023-02-11T00:51:45;47.95;;;18.83;;
75993;SDS011;64680;53.800;9.988;2023-02-11T00:54:11;44.75;;;20.52;;
75993;SDS011;64680;53.800;9.988;2023-02-11T00:56:36;43.75;;;18.67;;
75993;SDS011;64680;53.800;9.988;2023-02-11T00:59:02;40.35;;;17.80;;
75993;SDS011;64680;53.800;9.988;2023-02-11T01:01:28;43.63;;;18.00;;
75993;SDS011;64680;53.800;9.988;2023-02-11T01:03:53;50.47;;;17.60;;
75993;SDS011;64680;53.800;9.988;2023-02-11T01:06:19;49.95;;;18.08;;
75993;SDS011;64680;53.800;9.988;2023-02-11T01:08:44;38.67;;;16.98;;
75993;SDS011;64680;53.800;9.988;2023-02-11T01:11:15;41.67;;;16.98;;
75993;SDS011;64680;53.800;9.988;2023-02-11T01:13:42;40.35;;;17.38;;
75993;SDS011;64680;53.800;9.988;2023-02-11T01:16:08;46.03;;;18.70;;
75993;SDS011;64680;53.800;9.988;2023-02-11T01:18:35;53.78;;;19.40;;
75993;SDS011;64680;53.800;9.988;2023-02-11T01:21:01;40.63;;;17.73;;
75993;SDS011;64680;53.800;9.988;2023-02-11T01:23:27;45.75;;;18.15;;
75993;SDS011;64680;53.800;9.988;2023-02-11T01:25:53;44.38;;;16.25;;
75993;SDS011;64680;53.800;9.988;2023-02-11T01:28:19;41.95;;;17.52;;
75993;SDS011;64680;53.800;9.988;2023-02-11T01:30:50;42.78;;;17.63;;
75993;SDS011;64680;53.800;9.988;2023-02-11T01:33:16;46.58;;;18.80;;
75993;SDS011;64680;53.800;9.988;2023-02-11T01:35:41;52.53;;;20.23;;
75993;SDS011;64680;53.800;9.988;2023-02-11T01:38:12;52.42;;;18.63;;
75993;SDS011;64680;53.800;9.988;2023-02-11T01:40:39;46.28;;;17.98;;
75993;SDS011;64680;53.800;9.988;2023-02-11T01:43:10;53.45;;;19.67;;
75993;SDS011;64680;53.800;9.988;2023-02-11T01:48:12;42.33;;;15.77;;
75993;SDS011;64680;53.800;9.988;2023-02-11T01:50:41;40.20;;;16.75;;
75993;SDS011;64680;53.800;9.988;2023-02-11T01:53:10;47.42;;;17.50;;
75993;SDS011;64680;53.800;9.988;2023-02-11T01:55:54;51.80;;;18.10;;
75993;SDS011;64680;53.800;9.988;2023-02-11T01:58:40;39.47;;;15.73;;
75993;SDS011;64680;53.800;9.988;2023-02-11T02:01:10;44.35;;;17.50;;
75993;SDS011;64680;53.800;9.988;2023-02-11T02:03:41;42.88;;;17.92;;
75993;SDS011;64680;53.800;9.988;2023-02-11T02:09:16;40.60;;;15.77;;
75993;SDS011;64680;53.800;9.988;2023-02-11T02:11:49;43.65;;;17.58;;
75993;SDS011;64680;53.800;9.988;2023-02-11T02:14:16;54.22;;;19.45;;
75993;SDS011;64680;53.800;9.988;2023-02-11T02:16:41;57.08;;;19.42;;
75993;SDS011;64680;53.800;9.988;2023-02-11T02:25:23;48.90;;;18.55;;
75993;SDS011;64680;53.800;9.988;2023-02-11T02:33:23;51.00;;;18.95;;
75993;SDS011;64680;53.800;9.988;2023-02-11T02:36:04;47.90;;;18.25;;
75993;SDS011;64680;53.800;9.988;2023-02-11T02:41:26;49.20;;;18.17;;
75993;SDS011;64680;53.800;9.988;2023-02-11T02:43:55;44.20;;;17.63;;
75993;SDS011;64680;53.800;9.988;2023-02-11T02:46:23;48.25;;;16.67;;
75993;SDS011;64680;53.800;9.988;2023-02-11T02:48:50;46.63;;;17.95;;
75993;SDS011;64680;53.800;9.988;2023-02-11T02:56:47;45.65;;;16.60;;
75993;SDS011;64680;53.800;9.988;2023-02-11T03:02:05;40.67;;;15.70;;
75993;SDS011;64680;53.800;9.988;2023-02-11T03:04:47;42.30;;;16.40;;
75993;SDS011;64680;53.800;9.988;2023-02-11T03:12:20;51.08;;;16.90;;
75993;SDS011;64680;53.800;9.988;2023-02-11T03:14:48;48.28;;;16.70;;
75993;SDS011;64680;53.800;9.988;2023-02-11T03:17:16;43.13;;;15.85;;
75993;SDS011;64680;53.800;9.988;2023-02-11T03:19:43;50.47;;;15.75;;
75993;SDS011;64680;53.800;9.988;2023-02-11T03:24:40;40.78;;;14.70;;
75993;SDS011;64680;53.800;9.988;2023-02-11T03:32:36;49.63;;;15.75;;
75993;SDS011;64680;53.800;9.988;2023-02-11T03:37:54;42.30;;;15.63;;
75993;SDS011;64680;53.800;9.988;2023-02-11T03:40:27;40.15;;;14.20;;
75993;SDS011;64680;53.800;9.988;2023-02-11T03:42:57;34.92;;;14.70;;
75993;SDS011;64680;53.800;9.988;2023-02-11T03:45:27;36.30;;;15.05;;
75993;SDS011;64680;53.800;9.988;2023-02-11T03:47:54;34.13;;;14.80;;
75993;SDS011;64680;53.800;9.988;2023-02-11T03:50:27;42.30;;;15.93;;
75993;SDS011;64680;53.800;9.988;2023-02-11T03:52:56;41.00;;;16.67;;
75993;SDS011;64680;53.800;9.988;2023-02-11T03:55:24;40.15;;;15.82;;
75993;SDS011;64680;53.800;9.988;2023-02-11T03:57:51;47.47;;;16.38;;
75993;SDS011;64680;53.800;9.988;2023-02-11T04:00:17;39.65;;;14.60;;
75993;SDS011;64680;53.800;9.988;2023-02-11T04:02:42;35.05;;;14.55;;
75993;SDS011;64680;53.800;9.988;2023-02-11T04:05:10;42.83;;;13.90;;
75993;SDS011;64680;53.800;9.988;2023-02-11T04:07:38;37.45;;;14.70;;
75993;SDS011;64680;53.800;9.988;2023-02-11T04:10:04;51.05;;;16.45;;
75993;SDS011;64680;53.800;9.988;2023-02-11T04:12:30;35.95;;;13.63;;
75993;SDS011;64680;53.800;9.988;2023-02-11T04:14:56;43.42;;;15.27;;
75993;SDS011;64680;53.800;9.988;2023-02-11T04:17:22;40.05;;;15.63;;
75993;SDS011;64680;53.800;9.988;2023-02-11T04:19:47;42.38;;;14.95;;
75993;SDS011;64680;53.800;9.988;2023-02-11T04:22:13;31.05;;;13.15;;
75993;SDS011;64680;53.800;9.988;2023-02-11T04:24:38;36.00;;;14.32;;
75993;SDS011;64680;53.800;9.988;2023-02-11T04:27:04;40.83;;;15.07;;
75993;SDS011;64680;53.800;9.988;2023-02-11T04:29:30;38.00;;;13.88;;
75993;SDS011;64680;53.800;9.988;2023-02-11T04:31:56;32.15;;;12.82;;
75993;SDS011;64680;53.800;9.988;2023-02-11T04:34:21;33.28;;;12.27;;
75993;SDS011;64680;53.800;9.988;2023-02-11T04:36:48;30.55;;;12.35;;
75993;SDS011;64680;53.800;9.988;2023-02-11T04:39:14;46.63;;;13.88;;
75993;SDS011;64680;53.800;9.988;2023-02-11T04:41:40;38.75;;;13.60;;
75993;SDS011;64680;53.800;9.988;2023-02-11T04:44:05;39.58;;;14.57;;
75993;SDS011;64680;53.800;9.988;2023-02-11T04:46:31;39.75;;;14.60;;
75993;SDS011;64680;53.800;9.988;2023-02-11T04:48:57;42.72;;;14.55;;
75993;SDS011;64680;53.800;9.988;2023-02-11T04:51:22;45.78;;;14.05;;
75993;SDS011;64680;53.800;9.988;2023-02-11T04:53:48;31.08;;;12.23;;
75993;SDS011;64680;53.800;9.988;2023-02-11T04:56:13;45.67;;;15.80;;
75993;SDS011;64680;53.800;9.988;2023-02-11T04:58:39;35.22;;;12.25;;
75993;SDS011;64680;53.800;9.988;2023-02-11T05:01:08;39.70;;;14.38;;
75993;SDS011;64680;53.800;9.988;2023-02-11T05:03:35;35.95;;;12.52;;
75993;SDS011;64680;53.800;9.988;2023-02-11T05:06:01;33.17;;;11.77;;
75993;SDS011;64680;53.800;9.988;2023-02-11T05:08:26;26.90;;;10.98;;
75993;SDS011;64680;53.800;9.988;2023-02-11T05:10:52;33.03;;;12.00;;
75993;SDS011;64680;53.800;9.988;2023-02-11T05:13:18;36.58;;;12.00;;
75993;SDS011;64680;53.800;9.988;2023-02-11T05:15:43;35.33;;;12.93;;
75993;SDS011;64680;53.800;9.988;2023-02-11T05:18:09;37.55;;;12.38;;
75993;SDS011;64680;53.800;9.988;2023-02-11T05:20:36;36.53;;;12.48;;
75993;SDS011;64680;53.800;9.988;2023-02-11T05:23:02;32.63;;;13.20;;
75993;SDS011;64680;53.800;9.988;2023-02-11T05:25:28;38.17;;;13.30;;
75993;SDS011;64680;53.800;9.988;2023-02-11T05:27:54;32.40;;;11.85;;
75993;SDS011;64680;53.800;9.988;2023-02-11T05:30:20;34.55;;;11.90;;
75993;SDS011;64680;53.800;9.988;2023-02-11T05:32:45;28.42;;;10.77;;
75993;SDS011;64680;53.800;9.988;2023-02-11T05:35:11;26.60;;;10.40;;
75993;SDS011;64680;53.800;9.988;2023-02-11T05:37:37;33.35;;;11.70;;
75993;SDS011;64680;53.800;9.988;2023-02-11T05:40:03;30.27;;;11.27;;
75993;SDS011;64680;53.800;9.988;2023-02-11T05:42:29;30.15;;;11.05;;
75993;SDS011;64680;53.800;9.988;2023-02-11T05:44:54;32.33;;;11.82;;
75993;SDS011;64680;53.800;9.988;2023-02-11T05:47:20;28.63;;;11.88;;
75993;SDS011;64680;53.800;9.988;2023-02-11T05:49:45;30.38;;;11.15;;
75993;SDS011;64680;53.800;9.988;2023-02-11T05:52:11;32.60;;;12.20;;
75993;SDS011;64680;53.800;9.988;2023-02-11T05:54:37;27.77;;;10.25;;
75993;SDS011;64680;53.800;9.988;2023-02-11T05:57:02;33.92;;;11.90;;
75993;SDS011;64680;53.800;9.988;2023-02-11T05:59:28;26.27;;;11.52;;
75993;SDS011;64680;53.800;9.988;2023-02-11T06:01:53;31.42;;;11.90;;
75993;SDS011;64680;53.800;9.988;2023-02-11T06:04:19;33.47;;;11.70;;
75993;SDS011;64680;53.800;9.988;2023-02-11T06:06:44;33.78;;;14.15;;
75993;SDS011;64680;53.800;9.988;2023-02-11T06:09:10;28.58;;;11.63;;
75993;SDS011;64680;53.800;9.988;2023-02-11T06:11:36;34.70;;;12.68;;
75993;SDS011;64680;53.800;9.988;2023-02-11T06:14:01;30.67;;;12.70;;
75993;SDS011;64680;53.800;9.988;2023-02-11T06:16:27;35.80;;;12.43;;
75993;SDS011;64680;53.800;9.988;2023-02-11T06:18:53;38.15;;;12.15;;
75993;SDS011;64680;53.800;9.988;2023-02-11T06:21:18;36.40;;;12.55;;
75993;SDS011;64680;53.800;9.988;2023-02-11T06:23:44;40.10;;;14.93;;
75993;SDS011;64680;53.800;9.988;2023-02-11T06:26:15;41.00;;;14.15;;
75993;SDS011;64680;53.800;9.988;2023-02-11T06:28:43;29.20;;;12.18;;
75993;SDS011;64680;53.800;9.988;2023-02-11T06:31:08;36.25;;;13.20;;
75993;SDS011;64680;53.800;9.988;2023-02-11T06:33:35;27.77;;;12.60;;
75993;SDS011;64680;53.800;9.988;2023-02-11T06:36:02;34.45;;;14.27;;
75993;SDS011;64680;53.800;9.988;2023-02-11T06:38:28;28.17;;;12.63;;
75993;SDS011;64680;53.800;9.988;2023-02-11T06:40:54;30.65;;;12.65;;
75993;SDS011;64680;53.800;9.988;2023-02-11T06:43:19;32.78;;;11.60;;
75993;SDS011;64680;53.800;9.988;2023-02-11T06:45:50;31.15;;;12.50;;
75993;SDS011;64680;53.800;9.988;2023-02-11T06:48:18;44.03;;;14.20;;
75993;SDS011;64680;53.800;9.988;2023-02-11T06:50:44;36.42;;;13.40;;
75993;SDS011;64680;53.800;9.988;2023-02-11T06:53:09;41.20;;;13.38;;
75993;SDS011;64680;53.800;9.988;2023-02-11T06:55:35;33.70;;;11.43;;
75993;SDS011;64680;53.800;9.988;2023-02-11T06:58:01;32.95;;;11.77;;
75993;SDS011;64680;53.800;9.988;2023-02-11T07:00:26;33.80;;;11.70;;
75993;SDS011;64680;53.800;9.988;2023-02-11T07:02:53;32.92;;;13.48;;
75993;SDS011;64680;53.800;9.988;2023-02-11T07:05:19;32.78;;;12.38;;
75993;SDS011;64680;53.800;9.988;2023-02-11T07:07:45;37.13;;;14.48;;
75993;SDS011;64680;53.800;9.988;2023-02-11T07:10:10;26.65;;;12.32;;
75993;SDS011;64680;53.800;9.988;2023-02-11T07:12:36;34.75;;;12.52;;
75993;SDS011;64680;53.800;9.988;2023-02-11T07:15:02;32.83;;;12.02;;
75993;SDS011;64680;53.800;9.988;2023-02-11T07:17:28;38.47;;;13.38;;
75993;SDS011;64680;53.800;9.988;2023-02-11T07:19:53;31.90;;;13.43;;
75993;SDS011;64680;53.800;9.988;2023-02-11T07:22:19;34.08;;;11.50;;
75993;SDS011;64680;53.800;9.988;2023-02-11T07:24:45;30.58;;;12.65;;
75993;SDS011;64680;53.800;9.988;2023-02-11T07:27:10;32.45;;;11.52;;
75993;SDS011;64680;53.800;9.988;2023-02-11T07:29:36;31.05;;;11.18;;
75993;SDS011;64680;53.800;9.988;2023-02-11T07:32:02;41.65;;;13.52;;
75993;SDS011;64680;53.800;9.988;2023-02-11T07:34:28;31.05;;;11.93;;
75993;SDS011;64680;53.800;9.988;2023-02-11T07:36:54;33.67;;;11.52;;
75993;SDS011;64680;53.800;9.988;2023-02-11T07:39:19;32.97;;;12.32;;
75993;SDS011;64680;53.800;9.988;2023-02-11T07:41:46;32.70;;;11.88;;
75993;SDS011;64680;53.800;9.988;2023-02-11T07:44:13;33.75;;;11.65;;
75993;SDS011;64680;53.800;9.988;2023-02-11T07:46:39;35.88;;;13.00;;
75993;SDS011;64680;53.800;9.988;2023-02-11T07:49:08;30.65;;;11.00;;
75993;SDS011;64680;53.800;9.988;2023-02-11T07:51:35;31.70;;;11.52;;
75993;SDS011;64680;53.800;9.988;2023-02-11T07:54:02;26.45;;;10.95;;
75993;SDS011;64680;53.800;9.988;2023-02-11T07:56:28;29.95;;;11.48;;
75993;SDS011;64680;53.800;9.988;2023-02-11T07:58:54;25.55;;;10.60;;
75993;SDS011;64680;53.800;9.988;2023-02-11T08:01:24;30.95;;;11.93;;
75993;SDS011;64680;53.800;9.988;2023-02-11T08:03:52;30.85;;;11.23;;
75993;SDS011;64680;53.800;9.988;2023-02-11T08:06:19;29.05;;;11.48;;
75993;SDS011;64680;53.800;9.988;2023-02-11T08:08:46;30.48;;;13.25;;
75993;SDS011;64680;53.800;9.988;2023-02-11T08:11:12;28.60;;;11.48;;
75993;SDS011;64680;53.800;9.988;2023-02-11T08:13:41;28.00;;;11.50;;
75993;SDS011;64680;53.800;9.988;2023-02-11T08:16:08;31.27;;;10.00;;
75993;SDS011;64680;53.800;9.988;2023-02-11T08:18:40;33.42;;;11.80;;
75993;SDS011;64680;53.800;9.988;2023-02-11T08:21:07;30.05;;;10.15;;
75993;SDS011;64680;53.800;9.988;2023-02-11T08:23:37;32.00;;;11.98;;
75993;SDS011;64680;53.800;9.988;2023-02-11T08:26:05;34.97;;;11.10;;
75993;SDS011;64680;53.800;9.988;2023-02-11T08:28:34;32.45;;;13.77;;
75993;SDS011;64680;53.800;9.988;2023-02-11T08:31:08;32.35;;;11.07;;
75993;SDS011;64680;53.800;9.988;2023-02-11T08:33:35;33.33;;;9.68;;
75993;SDS011;64680;53.800;9.988;2023-02-11T08:36:06;27.58;;;9.13;;
75993;SDS011;64680;53.800;9.988;2023-02-11T08:41:02;29.27;;;10.65;;
75993;SDS011;64680;53.800;9.988;2023-02-11T08:43:28;23.60;;;8.95;;
75993;SDS011;64680;53.800;9.988;2023-02-11T08:45:53;32.20;;;11.40;;
75993;SDS011;64680;53.800;9.988;2023-02-11T08:48:19;29.35;;;11.35;;
75993;SDS011;64680;53.800;9.988;2023-02-11T08:50:45;34.45;;;11.48;;
75993;SDS011;64680;53.800;9.988;2023-02-11T08:53:11;31.42;;;10.82;;
75993;SDS011;64680;53.800;9.988;2023-02-11T08:55:36;33.55;;;10.65;;
75993;SDS011;64680;53.800;9.988;2023-02-11T08:58:02;25.05;;;9.57;;
75993;SDS011;64680;53.800;9.988;2023-02-11T09:00:28;26.73;;;9.77;;
75993;SDS011;64680;53.800;9.988;2023-02-11T09:02:55;29.90;;;9.75;;
75993;SDS011;64680;53.800;9.988;2023-02-11T09:05:20;32.08;;;10.82;;
75993;SDS011;64680;53.800;9.988;2023-02-11T09:07:46;21.58;;;8.27;;
75993;SDS011;64680;53.800;9.988;2023-02-11T09:10:12;33.40;;;10.27;;
75993;SDS011;64680;53.800;9.988;2023-02-11T09:12:38;34.30;;;9.85;;
75993;SDS011;64680;53.800;9.988;2023-02-11T09:15:04;21.88;;;8.77;;
75993;SDS011;64680;53.800;9.988;2023-02-11T09:17:30;26.17;;;9.35;;
75993;SDS011;64680;53.800;9.988;2023-02-11T09:19:55;27.73;;;9.52;;
75993;SDS011;64680;53.800;9.988;2023-02-11T09:22:21;28.38;;;9.00;;
75993;SDS011;64680;53.800;9.988;2023-02-11T09:24:46;31.27;;;8.80;;
75993;SDS011;64680;53.800;9.988;2023-02-11T09:27:12;29.83;;;8.48;;
75993;SDS011;64680;53.800;9.988;2023-02-11T09:29:38;29.80;;;8.65;;
75993;SDS011;64680;53.800;9.988;2023-02-11T09:32:03;34.55;;;9.45;;
75993;SDS011;64680;53.800;9.988;2023-02-11T09:34:30;40.65;;;8.98;;
75993;SDS011;64680;53.800;9.988;2023-02-11T09:36:55;32.92;;;8.80;;
75993;SDS011;64680;53.800;9.988;2023-02-11T09:39:21;27.42;;;8.15;;
75993;SDS011;64680;53.800;9.988;2023-02-11T09:41:53;29.70;;;8.18;;
75993;SDS011;64680;53.800;9.988;2023-02-11T09:44:26;23.58;;;7.35;;
75993;SDS011;64680;53.800;9.988;2023-02-11T09:49:37;26.23;;;8.80;;
75993;SDS011;64680;53.800;9.988;2023-02-11T09:52:26;23.67;;;7.70;;
75993;SDS011;64680;53.800;9.988;2023-02-11T09:57:23;28.23;;;7.57;;
75993;SDS011;64680;53.800;9.988;2023-02-11T09:59:52;21.85;;;6.70;;
75993;SDS011;64680;53.800;9.988;2023-02-11T10:02:20;24.98;;;7.18;;
75993;SDS011;64680;53.800;9.988;2023-02-11T10:05:16;25.10;;;7.53;;
75993;SDS011;64680;53.800;9.988;2023-02-11T10:10:51;18.42;;;5.90;;
75993;SDS011;64680;53.800;9.988;2023-02-11T10:21:39;20.20;;;6.47;;
75993;SDS011;64680;53.800;9.988;2023-02-11T10:24:23;16.35;;;5.80;;
75993;SDS011;64680;53.800;9.988;2023-02-11T10:26:50;25.95;;;5.43;;
75993;SDS011;64680;53.800;9.988;2023-02-11T10:29:33;14.52;;;6.53;;
75993;SDS011;64680;53.800;9.988;2023-02-11T10:32:03;18.33;;;4.18;;
75993;SDS011;64680;53.800;9.988;2023-02-11T10:34:50;20.00;;;4.65;;
75993;SDS011;64680;53.800;9.988;2023-02-11T10:37:19;20.48;;;4.30;;
75993;SDS011;64680;53.800;9.988;2023-02-11T10:39:45;18.23;;;4.20;;
75993;SDS011;64680;53.800;9.988;2023-02-11T10:42:11;11.60;;;3.58;;
75993;SDS011;64680;53.800;9.988;2023-02-11T10:44:40;15.15;;;4.05;;
75993;SDS011;64680;53.800;9.988;2023-02-11T10:47:41;19.73;;;3.85;;
75993;SDS011;64680;53.800;9.988;2023-02-11T10:53:15;18.95;;;4.43;;
75993;SDS011;64680;53.800;9.988;2023-02-11T10:55:52;23.83;;;4.97;;
75993;SDS011;64680;53.800;9.988;2023-02-11T11:01:09;29.63;;;5.30;;
75993;SDS011;64680;53.800;9.988;2023-02-11T11:03:36;22.48;;;5.28;;
75993;SDS011;64680;53.800;9.988;2023-02-11T11:06:09;21.38;;;4.50;;
75993;SDS011;64680;53.800;9.988;2023-02-11T11:08:36;26.38;;;4.70;;
75993;SDS011;64680;53.800;9.988;2023-02-11T11:11:14;16.88;;;4.10;;
75993;SDS011;64680;53.800;9.988;2023-02-11T11:21:42;16.17;;;4.57;;
75993;SDS011;64680;53.800;9.988;2023-02-11T11:24:14;24.60;;;4.28;;
75993;SDS011;64680;53.800;9.988;2023-02-11T11:26:50;26.73;;;5.60;;
75993;SDS011;64680;53.800;9.988;2023-02-11T11:29:19;22.45;;;5.13;;
75993;SDS011;64680;53.800;9.988;2023-02-11T11:31:55;25.45;;;4.45;;
75993;SDS011;64680;53.800;9.988;2023-02-11T11:37:17;21.83;;;5.00;;
75993;SDS011;64680;53.800;9.988;2023-02-11T11:39:55;26.92;;;4.47;;
75993;SDS011;64680;53.800;9.988;2023-02-11T11:42:25;23.70;;;5.30;;
75993;SDS011;64680;53.800;9.988;2023-02-11T11:44:58;29.35;;;4.70;;
75993;SDS011;64680;53.800;9.988;2023-02-11T11:47:27;28.35;;;5.03;;
75993;SDS011;64680;53.800;9.988;2023-02-11T11:52:57;16.50;;;4.03;;
75993;SDS011;64680;53.800;9.988;2023-02-11T11:55:44;20.92;;;3.63;;
75993;SDS011;64680;53.800;9.988;2023-02-11T11:58:16;20.40;;;3.83;;
75993;SDS011;64680;53.800;9.988;2023-02-11T12:17:08;14.20;;;3.70;;
75993;SDS011;64680;53.800;9.988;2023-02-11T12:28:27;23.88;;;4.78;;
75993;SDS011;64680;53.800;9.988;2023-02-11T12:36:40;19.98;;;4.18;;
75993;SDS011;64680;53.800;9.988;2023-02-11T12:44:59;16.13;;;3.20;;
75993;SDS011;64680;53.800;9.988;2023-02-11T12:47:48;19.30;;;3.35;;
75993;SDS011;64680;53.800;9.988;2023-02-11T12:56:56;12.20;;;3.22;;
75993;SDS011;64680;53.800;9.988;2023-02-11T13:05:24;15.40;;;3.53;;
75993;SDS011;64680;53.800;9.988;2023-02-11T13:08:11;20.58;;;4.18;;
75993;SDS011;64680;53.800;9.988;2023-02-11T13:10:46;15.35;;;4.15;;
75993;SDS011;64680;53.800;9.988;2023-02-11T13:13:32;15.13;;;3.33;;
75993;SDS011;64680;53.800;9.988;2023-02-11T13:16:11;15.70;;;3.72;;
75993;SDS011;64680;53.800;9.988;2023-02-11T13:31:55;22.42;;;4.38;;
75993;SDS011;64680;53.800;9.988;2023-02-11T13:37:05;16.10;;;4.03;;
75993;SDS011;64680;53.800;9.988;2023-02-11T13:39:58;23.23;;;5.63;;
75993;SDS011;64680;53.800;9.988;2023-02-11T13:42:26;19.67;;;4.75;;
75993;SDS011;64680;53.800;9.988;2023-02-11T13:44:53;21.23;;;6.10;;
75993;SDS011;64680;53.800;9.988;2023-02-11T13:49:54;20.08;;;6.20;;
75993;SDS011;64680;53.800;9.988;2023-02-11T13:54:50;25.30;;;6.47;;
75993;SDS011;64680;53.800;9.988;2023-02-11T14:12:15;16.27;;;4.32;;
75993;SDS011;64680;53.800;9.988;2023-02-11T14:14:57;14.57;;;3.88;;
75993;SDS011;64680;53.800;9.988;2023-02-11T14:17:27;10.02;;;2.85;;
75993;SDS011;64680;53.800;9.988;2023-02-11T14:19:57;11.25;;;2.50;;
75993;SDS011;64680;53.800;9.988;2023-02-11T14:22:29;11.85;;;2.92;;
75993;SDS011;64680;53.800;9.988;2023-02-11T14:25:14;9.68;;;2.75;;
75993;SDS011;64680;53.800;9.988;2023-02-11T14:28:00;14.82;;;3.72;;
75993;SDS011;64680;53.800;9.988;2023-02-11T14:41:43;10.57;;;2.15;;
75993;SDS011;64680;53.800;9.988;2023-02-11T14:44:31;10.68;;;3.25;;
75993;SDS011;64680;53.800;9.988;2023-02-11T14:46:58;9.98;;;2.03;;
75993;SDS011;64680;53.800;9.988;2023-02-11T14:51:55;11.52;;;2.40;;
75993;SDS011;64680;53.800;9.988;2023-02-11T14:54:26;7.95;;;2.28;;
75993;SDS011;64680;53.800;9.988;2023-02-11T14:57:06;11.35;;;2.65;;
75993;SDS011;64680;53.800;9.988;2023-02-11T14:59:38;12.30;;;2.97;;
75993;SDS011;64680;53.800;9.988;2023-02-11T15:02:19;11.70;;;3.80;;
75993;SDS011;64680;53.800;9.988;2023-02-11T15:04:46;15.77;;;3.80;;
75993;SDS011;64680;53.800;9.988;2023-02-11T15:07:12;11.80;;;3.20;;
75993;SDS011;64680;53.800;9.988;2023-02-11T15:09:40;10.13;;;3.33;;
75993;SDS011;64680;53.800;9.988;2023-02-11T15:12:24;13.48;;;3.33;;
75993;SDS011;64680;53.800;9.988;2023-02-11T15:14:52;10.48;;;2.85;;
75993;SDS011;64680;53.800;9.988;2023-02-11T15:17:21;13.30;;;3.10;;
75993;SDS011;64680;53.800;9.988;2023-02-11T15:19:51;15.18;;;5.78;;
75993;SDS011;64680;53.800;9.988;2023-02-11T15:22:21;21.58;;;5.57;;
75993;SDS011;64680;53.800;9.988;2023-02-11T15:24:56;12.70;;;4.60;;
75993;SDS011;64680;53.800;9.988;2023-02-11T15:27:39;17.08;;;3.95;;
75993;SDS011;64680;53.800;9.988;2023-02-11T15:32:54;13.40;;;4.57;;
75993;SDS011;64680;53.800;9.988;2023-02-11T15:35:25;14.40;;;4.43;;
75993;SDS011;64680;53.800;9.988;2023-02-11T15:37:54;17.17;;;4.38;;
75993;SDS011;64680;53.800;9.988;2023-02-11T15:40:25;17.70;;;5.90;;
75993;SDS011;64680;53.800;9.988;2023-02-11T15:42:56;18.13;;;4.10;;
75993;SDS011;64680;53.800;9.988;2023-02-11T15:48:23;18.75;;;6.03;;
75993;SDS011;64680;53.800;9.988;2023-02-11T15:50:53;24.70;;;6.45;;
75993;SDS011;64680;53.800;9.988;2023-02-11T15:58:44;15.07;;;4.13;;
75993;SDS011;64680;53.800;9.988;2023-02-11T16:01:13;15.48;;;5.32;;
75993;SDS011;64680;53.800;9.988;2023-02-11T16:03:39;12.50;;;4.20;;
75993;SDS011;64680;53.800;9.988;2023-02-11T16:06:16;15.30;;;3.80;;
75993;SDS011;64680;53.800;9.988;2023-02-11T16:08:56;13.88;;;6.28;;
75993;SDS011;64680;53.800;9.988;2023-02-11T16:11:29;10.60;;;3.97;;
75993;SDS011;64680;53.800;9.988;2023-02-11T16:14:00;13.05;;;5.35;;
75993;SDS011;64680;53.800;9.988;2023-02-11T16:16:42;15.52;;;5.10;;
75993;SDS011;64680;53.800;9.988;2023-02-11T16:19:13;20.80;;;5.30;;
75993;SDS011;64680;53.800;9.988;2023-02-11T16:21:43;13.65;;;4.82;;
75993;SDS011;64680;53.800;9.988;2023-02-11T16:24:20;17.50;;;6.38;;
75993;SDS011;64680;53.800;9.988;2023-02-11T16:26:50;18.92;;;4.22;;
75993;SDS011;64680;53.800;9.988;2023-02-11T16:29:21;14.00;;;4.72;;
75993;SDS011;64680;53.800;9.988;2023-02-11T16:31:52;16.77;;;4.82;;
75993;SDS011;64680;53.800;9.988;2023-02-11T16:34:28;17.50;;;4.53;;
75993;SDS011;64680;53.800;9.988;2023-02-11T16:36:54;14.02;;;5.18;;
75993;SDS011;64680;53.800;9.988;2023-02-11T16:39:19;16.77;;;4.65;;
75993;SDS011;64680;53.800;9.988;2023-02-11T16:41:46;24.25;;;7.00;;
75993;SDS011;64680;53.800;9.988;2023-02-11T16:44:14;21.75;;;6.07;;
75993;SDS011;64680;53.800;9.988;2023-02-11T16:46:40;24.23;;;6.75;;
75993;SDS011;64680;53.800;9.988;2023-02-11T16:49:10;24.02;;;6.88;;
75993;SDS011;64680;53.800;9.988;2023-02-11T16:51:41;25.83;;;6.63;;
75993;SDS011;64680;53.800;9.988;2023-02-11T16:54:10;17.77;;;6.40;;
75993;SDS011;64680;53.800;9.988;2023-02-11T16:56:38;18.95;;;5.50;;
75993;SDS011;64680;53.800;9.988;2023-02-11T16:59:04;20.25;;;5.97;;
75993;SDS011;64680;53.800;9.988;2023-02-11T17:01:30;21.50;;;6.45;;
75993;SDS011;64680;53.800;9.988;2023-02-11T17:03:56;21.02;;;7.43;;
75993;SDS011;64680;53.800;9.988;2023-02-11T17:06:22;22.52;;;6.82;;
75993;SDS011;64680;53.800;9.988;2023-02-11T17:08:47;23.05;;;8.82;;
75993;SDS011;64680;53.800;9.988;2023-02-11T17:11:13;20.27;;;7.13;;
75993;SDS011;64680;53.800;9.988;2023-02-11T17:13:41;24.95;;;9.10;;
75993;SDS011;64680;53.800;9.988;2023-02-11T17:16:13;23.20;;;6.93;;
75993;SDS011;64680;53.800;9.988;2023-02-11T17:18:41;22.55;;;8.25;;
75993;SDS011;64680;53.800;9.988;2023-02-11T17:21:07;21.98;;;6.75;;
75993;SDS011;64680;53.800;9.988;2023-02-11T17:23:33;18.30;;;6.57;;
75993;SDS011;64680;53.800;9.988;2023-02-11T17:25:59;21.25;;;6.70;;
75993;SDS011;64680;53.800;9.988;2023-02-11T17:28:24;17.45;;;5.47;;
75993;SDS011;64680;53.800;9.988;2023-02-11T17:30:50;17.13;;;7.13;;
75993;SDS011;64680;53.800;9.988;2023-02-11T17:33:16;19.48;;;5.32;;
75993;SDS011;64680;53.800;9.988;2023-02-11T17:35:43;15.95;;;6.18;;
75993;SDS011;64680;53.800;9.988;2023-02-11T17:38:09;21.67;;;6.40;;
75993;SDS011;64680;53.800;9.988;2023-02-11T17:40:34;13.63;;;4.63;;
75993;SDS011;64680;53.800;9.988;2023-02-11T17:43:00;15.73;;;4.35;;
75993;SDS011;64680;53.800;9.988;2023-02-11T17:45:27;18.38;;;4.95;;
75993;SDS011;64680;53.800;9.988;2023-02-11T17:47:52;14.07;;;4.00;;
75993;SDS011;64680;53.800;9.988;2023-02-11T17:50:18;22.38;;;5.07;;